Hope, Canada
Current Conditions -  °F | °C
As of 6:45 AM on Friday 28 Nov 2014 (Local Time) from CYHE Reporting Station
Moderate Rain Moderate Rain  
Wind Chill: 40°   Ceiling: 3900
Heat Index: 46°   Visibility: 3mi
Dew Point: 45°   Wind: 16mph
Humidity: 93%   Direction: 290°WNW
Pressure: 29.42"   Gusts: 29mph
Location:  49.36°N, 121.5°W
Report Text: CYHE 281445Z AUTO 29014G25KT 270V360 3SM RA BR OVC039 08/07 A2942 RMK PRESRR PCPN 6.0MM PAST HR SLP964
Loading
Personal Weather Stations






























Interactive Weather Map New forecast layout! Learn more

10-Day Weather Forecast

Advertisements
Track Severe Weather on mobile